Terminal Aerodrome Forecast
Issued by NWS

Home | Current Version | Previous Version | Text Only | Print | Product List | Glossary Off
Versions: 1 2 3 4 5 6 7 8 9 10 11 12 13 14 15 16 17 18 19 20 21 22 23 24 25 26 27 28 29 30 31 32 33

000
FTUS43 KLOT 281745
TAFORD
TAF
KORD 281745Z 2818/2924 20013G24KT P6SM BKN040 BKN150
     FM282000 20015G23KT P6SM SCT040 BKN250
     FM290100 19012KT P6SM VCTS BKN040CB BKN250
     FM290500 22009KT P6SM FEW035 SCT250
     FM291500 24017G25KT P6SM FEW050
     FM291900 26012G22KT P6SM FEW150=

USA.gov is the U.S. government's official web portal to all federal, state and local government web resources and services.